Time;durP1;ratioP1;P1;durP2;ratioP2;P2;SDS_P1;SDS_P2;PMS_P1;PMS_P2;Temp;Humidity;BMP_temperature;BMP_pressure;BME280_temperature;BME280_humidity;BME280_pressure;Samples;Min_cycle;Max_cycle;Signal;HPM_P1;HPM_P2
2022/03/17 00:02:53;;;;;;;14.05;12.75;;;21.70;66.50;;;;;;6170476;28;90189;-64
2022/03/17 00:05:55;;;;;;;14.15;12.95;;;21.70;66.40;;;;;;6183624;28;89116;-65
2022/03/17 00:08:57;;;;;;;14.35;13.05;;;21.70;66.40;;;;;;6182071;28;89357;-65
2022/03/17 00:12:00;;;;;;;14.27;12.88;;;21.70;66.40;;;;;;6181280;28;89109;-65
2022/03/17 00:15:04;;;;;;;13.98;12.77;;;21.70;66.30;;;;;;6181423;28;89151;-64
2022/03/17 00:18:06;;;;;;;14.07;12.77;;;21.70;66.20;;;;;;6183055;28;89132;-64
2022/03/17 00:21:08;;;;;;;13.80;12.50;;;21.70;66.20;;;;;;6181130;28;88956;-65
2022/03/17 00:24:10;;;;;;;14.90;13.55;;;21.60;66.40;;;;;;6183655;28;88264;-65
2022/03/17 00:27:14;;;;;;;15.10;13.70;;;21.60;66.70;;;;;;6180514;28;89128;-65
2022/03/17 00:30:35;;;;;;;13.88;12.65;;;21.60;66.30;;;;;;6181820;28;89151;-65
2022/03/17 00:33:37;;;;;;;14.23;12.93;;;21.60;66.40;;;;;;6179802;28;90029;-64
2022/03/17 00:36:39;;;;;;;13.85;12.63;;;21.60;66.40;;;;;;6182405;28;89168;-64
2022/03/17 00:39:41;;;;;;;13.93;12.65;;;21.60;66.20;;;;;;6180068;28;88115;-65
2022/03/17 00:42:45;;;;;;;13.82;12.52;;;21.60;66.40;;;;;;6182364;28;88017;-65
2022/03/17 00:45:48;;;;;;;13.85;12.63;;;21.60;66.40;;;;;;6180681;28;88974;-65
2022/03/17 00:48:50;;;;;;;14.20;12.90;;;21.60;66.40;;;;;;6181702;28;89129;-65
2022/03/17 00:51:52;;;;;;;13.75;12.45;;;21.60;66.40;;;;;;6181542;28;89079;-65
2022/03/17 00:54:54;;;;;;;13.70;12.48;;;21.60;66.40;;;;;;6169261;28;88264;-64
2022/03/17 00:57:58;;;;;;;14.27;12.98;;;21.60;66.30;;;;;;6155085;28;87103;-65
2022/03/17 01:01:00;;;;;;;13.80;12.60;;;21.50;66.20;;;;;;6157919;28;88047;-64
2022/03/17 01:04:02;;;;;;;13.20;12.00;;;21.50;66.40;;;;;;6180130;28;88909;-64
2022/03/17 01:07:05;;;;;;;13.68;12.48;;;21.50;66.20;;;;;;6180737;28;89256;-65
2022/03/17 01:10:08;;;;;;;13.38;12.18;;;21.50;66.10;;;;;;6182044;28;89021;-64
2022/03/17 01:13:12;;;;;;;13.43;12.23;;;21.50;66.10;;;;;;6180445;28;89182;-64
2022/03/17 01:16:15;;;;;;;13.50;12.27;;;21.50;66.10;;;;;;6181245;28;89491;-65
2022/03/17 01:19:19;;;;;;;13.75;12.50;;;21.50;66.00;;;;;;6180189;28;89306;-65
2022/03/17 01:22:21;;;;;;;13.40;12.20;;;21.50;66.00;;;;;;6180341;28;89274;-64
2022/03/17 01:25:24;;;;;;;12.95;11.75;;;21.50;65.90;;;;;;6182732;28;87244;-65
2022/03/17 01:28:27;;;;;;;13.80;12.50;;;21.50;66.10;;;;;;6180636;28;89394;-64
2022/03/17 01:31:29;;;;;;;13.10;11.90;;;21.50;66.20;;;;;;6178712;28;88952;-65
2022/03/17 01:34:31;;;;;;;13.68;12.38;;;21.50;66.10;;;;;;6181925;28;89999;-64
2022/03/17 01:37:33;;;;;;;13.65;12.35;;;21.50;66.10;;;;;;6181786;28;89338;-64
2022/03/17 01:40:35;;;;;;;12.95;11.77;;;21.50;66.20;;;;;;6180753;28;89047;-64
2022/03/17 01:43:57;;;;;;;13.05;11.85;;;21.50;66.20;;;;;;6179377;28;89073;-64
2022/03/17 01:50:19;;;;;;;13.82;12.52;;;21.50;66.20;;;;;;6180011;28;87261;-64
2022/03/17 01:53:23;;;;;;;12.80;11.70;;;21.50;66.20;;;;;;6180555;28;88937;-64
2022/03/17 01:56:25;;;;;;;13.20;12.00;;;21.40;66.20;;;;;;6167185;28;88410;-64
2022/03/17 01:59:29;;;;;;;13.18;11.98;;;21.40;66.10;;;;;;6180241;28;89072;-64
2022/03/17 02:02:31;;;;;;;12.27;11.27;;;21.40;66.20;;;;;;6184247;28;87953;-64
2022/03/17 02:05:34;;;;;;;12.55;11.45;;;21.40;66.20;;;;;;6182612;28;89928;-64
2022/03/17 02:08:36;;;;;;;12.43;11.32;;;21.40;66.20;;;;;;6184576;28;89041;-64
2022/03/17 02:15:00;;;;;;;12.77;11.63;;;21.40;66.00;;;;;;6183677;28;87287;-64
2022/03/17 02:18:06;;;;;;;12.18;11.10;;;21.40;66.10;;;;;;6184658;28;89088;-64
2022/03/17 02:21:08;;;;;;;12.75;11.65;;;21.40;66.00;;;;;;6181493;28;88263;-65
2022/03/17 02:27:42;;;;;;;12.70;11.50;;;21.40;66.00;;;;;;6185046;28;86596;-65
2022/03/17 02:30:45;;;;;;;12.18;11.07;;;21.40;66.10;;;;;;6183503;28;89178;-64
2022/03/17 02:33:47;;;;;;;12.05;11.05;;;21.40;66.00;;;;;;6182670;28;89451;-65
2022/03/17 02:36:50;;;;;;;12.32;11.23;;;21.40;66.10;;;;;;6183295;28;90017;-64
2022/03/17 02:39:53;;;;;;;11.95;10.95;;;21.40;66.10;;;;;;6185439;28;89504;-64
2022/03/17 02:42:57;;;;;;;12.35;11.25;;;21.40;66.10;;;;;;6183642;28;89125;-64
2022/03/17 02:45:59;;;;;;;11.43;10.40;;;21.40;66.10;;;;;;6182812;28;89239;-64
2022/03/17 02:49:01;;;;;;;11.98;10.90;;;21.40;66.10;;;;;;6182449;28;87602;-65
2022/03/17 02:52:03;;;;;;;11.52;10.52;;;21.40;66.10;;;;;;6184046;28;89197;-65
2022/03/17 02:55:08;;;;;;;12.00;10.93;;;21.30;66.00;;;;;;6170131;28;89101;-64
2022/03/17 02:58:11;;;;;;;11.68;10.68;;;21.30;66.10;;;;;;6185076;28;88340;-65
2022/03/17 03:01:13;;;;;;;12.05;10.95;;;21.30;66.00;;;;;;6183499;28;88130;-64
2022/03/17 03:04:16;;;;;;;11.93;10.88;;;21.30;66.10;;;;;;6182910;28;89217;-65
2022/03/17 03:07:18;;;;;;;11.50;10.50;;;21.30;66.00;;;;;;6183850;28;89704;-65
2022/03/17 03:10:22;;;;;;;11.95;10.95;;;21.30;65.90;;;;;;6183741;28;89014;-65
2022/03/17 03:13:24;;;;;;;11.75;10.75;;;21.30;66.10;;;;;;6182162;28;89316;-65
2022/03/17 03:16:28;;;;;;;12.13;11.02;;;21.30;66.00;;;;;;6182555;28;89153;-64
2022/03/17 03:19:30;;;;;;;11.48;10.48;;;21.30;65.90;;;;;;6183576;28;87098;-65
2022/03/17 03:22:39;;;;;;;12.23;11.20;;;21.30;65.80;;;;;;6184001;28;89081;-64
2022/03/17 03:25:42;;;;;;;11.55;10.63;;;21.30;65.80;;;;;;6182554;28;89115;-65
2022/03/17 03:28:44;;;;;;;11.63;10.65;;;21.30;65.80;;;;;;6181714;28;88506;-64
2022/03/17 03:31:46;;;;;;;12.05;11.05;;;21.30;65.80;;;;;;6183561;28;89098;-65
2022/03/17 03:34:48;;;;;;;12.60;11.50;;;21.30;65.80;;;;;;6182440;28;89349;-65
2022/03/17 03:37:49;;;;;;;11.88;10.88;;;21.30;65.80;;;;;;6182682;28;90089;-65
2022/03/17 03:40:52;;;;;;;12.02;11.02;;;21.30;65.80;;;;;;6182838;28;88976;-65
2022/03/17 03:43:54;;;;;;;11.35;10.45;;;21.30;65.90;;;;;;6183074;28;89148;-65
2022/03/17 03:46:56;;;;;;;12.00;11.00;;;21.30;65.80;;;;;;6183393;28;88885;-65
2022/03/17 03:49:58;;;;;;;12.32;11.23;;;21.30;65.90;;;;;;6181676;28;88286;-65
2022/03/17 03:53:01;;;;;;;12.68;11.57;;;21.30;65.90;;;;;;6182108;28;88309;-64
2022/03/17 03:56:05;;;;;;;12.52;11.43;;;21.30;66.80;;;;;;6161286;28;89154;-65
2022/03/17 03:59:07;;;;;;;12.93;11.82;;;21.20;65.90;;;;;;6157985;28;87534;-65
2022/03/17 04:02:11;;;;;;;13.13;12.02;;;21.20;66.00;;;;;;6166748;28;88992;-65
2022/03/17 04:05:17;;;;;;;12.65;11.55;;;21.20;65.90;;;;;;6182922;28;87985;-65
2022/03/17 04:08:19;;;;;;;12.50;11.50;;;21.20;66.00;;;;;;6181879;28;90318;-65
2022/03/17 04:11:22;;;;;;;13.30;12.15;;;21.20;66.10;;;;;;6180927;28;88839;-65
2022/03/17 04:14:25;;;;;;;13.55;12.35;;;21.20;66.10;;;;;;6181658;28;89046;-65
2022/03/17 04:17:27;;;;;;;13.75;12.55;;;21.20;66.00;;;;;;6180738;28;89538;-64
2022/03/17 04:20:29;;;;;;;13.93;12.73;;;21.20;66.00;;;;;;6181069;28;87940;-65
2022/03/17 04:23:31;;;;;;;13.85;12.55;;;21.20;66.00;;;;;;6183013;28;87605;-64
2022/03/17 04:26:34;;;;;;;13.80;12.60;;;21.20;66.00;;;;;;6183183;28;87785;-64
2022/03/17 04:29:36;;;;;;;14.32;13.02;;;21.20;65.80;;;;;;6180721;28;88278;-64
2022/03/17 04:32:39;;;;;;;13.85;12.65;;;21.20;66.70;;;;;;6181351;28;88881;-65
2022/03/17 04:35:41;;;;;;;14.18;12.98;;;21.20;65.80;;;;;;6181129;28;89140;-64
2022/03/17 04:38:43;;;;;;;14.30;13.10;;;21.20;65.80;;;;;;6181606;28;90223;-65
2022/03/17 04:41:48;;;;;;;14.52;13.02;;;21.20;65.80;;;;;;6180810;28;88961;-64
2022/03/17 04:44:50;;;;;;;14.30;13.00;;;21.20;65.80;;;;;;6181654;28;89133;-65
2022/03/17 04:47:52;;;;;;;14.45;13.15;;;21.20;65.70;;;;;;6181251;28;88110;-65
2022/03/17 04:50:54;;;;;;;14.52;13.23;;;21.20;65.80;;;;;;6179326;28;89114;-65
2022/03/17 04:53:56;;;;;;;13.77;12.57;;;21.20;65.70;;;;;;6177165;28;89074;-65
2022/03/17 04:56:59;;;;;;;14.23;13.02;;;21.20;65.80;;;;;;6156531;28;89183;-65
2022/03/17 05:00:02;;;;;;;13.80;12.60;;;21.20;65.70;;;;;;6158903;28;89303;-65
2022/03/17 05:03:04;;;;;;;14.35;13.05;;;21.20;65.80;;;;;;6173160;28;89365;-64
2022/03/17 05:06:06;;;;;;;14.38;13.07;;;21.20;65.80;;;;;;6181103;28;88410;-65
2022/03/17 05:09:08;;;;;;;14.65;13.35;;;21.20;65.80;;;;;;6178808;28;89727;-64
2022/03/17 05:12:12;;;;;;;14.80;13.38;;;21.20;65.80;;;;;;6179300;28;89301;-65
2022/03/17 05:15:14;;;;;;;15.25;13.93;;;21.20;65.80;;;;;;6179992;28;87929;-64
2022/03/17 05:18:16;;;;;;;14.20;13.00;;;21.20;65.80;;;;;;6182008;28;88151;-65
2022/03/17 05:21:19;;;;;;;14.57;13.27;;;21.20;65.80;;;;;;6181899;28;89182;-65
2022/03/17 05:24:21;;;;;;;14.45;13.15;;;21.20;65.80;;;;;;6182109;28;89096;-65
2022/03/17 05:27:25;;;;;;;14.98;13.68;;;21.20;65.80;;;;;;6181499;28;87923;-65
2022/03/17 05:30:28;;;;;;;14.50;13.20;;;21.20;65.70;;;;;;6181199;28;88407;-64
2022/03/17 05:33:30;;;;;;;14.43;13.23;;;21.20;65.80;;;;;;6179347;28;88521;-65
2022/03/17 05:36:32;;;;;;;14.50;13.20;;;21.20;65.70;;;;;;6183362;28;89196;-64
2022/03/17 05:39:34;;;;;;;13.70;12.50;;;21.20;65.70;;;;;;6185387;28;90083;-65
2022/03/17 05:42:38;;;;;;;14.68;13.38;;;21.20;65.60;;;;;;6185545;28;89046;-64
2022/03/17 05:45:43;;;;;;;14.05;12.85;;;21.20;65.60;;;;;;6183746;28;88078;-64
2022/03/17 05:48:45;;;;;;;13.57;12.38;;;21.20;65.60;;;;;;6184316;28;89109;-64
2022/03/17 05:51:47;;;;;;;13.55;12.35;;;21.30;65.80;;;;;;6183358;28;87833;-64
2022/03/17 05:54:49;;;;;;;13.23;11.98;;;21.20;65.80;;;;;;6171471;28;89103;-65
2022/03/17 05:57:55;;;;;;;13.48;12.18;;;21.20;66.10;;;;;;6161173;28;89050;-65
2022/03/17 06:00:57;;;;;;;13.68;12.38;;;21.30;66.30;;;;;;6160022;28;88269;-65
2022/03/17 06:03:59;;;;;;;14.60;13.10;;;21.30;66.50;;;;;;6184971;28;89225;-65
2022/03/17 06:07:01;;;;;;;13.85;12.52;;;21.20;66.10;;;;;;6185053;28;89092;-64
2022/03/17 06:10:04;;;;;;;14.50;13.07;;;21.20;66.00;;;;;;6182757;28;88868;-64
2022/03/17 06:13:08;;;;;;;13.80;12.50;;;21.30;66.00;;;;;;6184339;28;87915;-65
2022/03/17 06:16:10;;;;;;;13.32;12.13;;;21.20;66.00;;;;;;6184838;28;89219;-64
2022/03/17 06:19:12;;;;;;;14.02;12.63;;;21.20;66.00;;;;;;6183775;28;89178;-65
2022/03/17 06:22:14;;;;;;;14.05;12.75;;;21.30;66.00;;;;;;6183682;28;89162;-64
2022/03/17 06:25:17;;;;;;;13.65;12.45;;;21.20;66.00;;;;;;6185652;28;89353;-65
2022/03/17 06:28:21;;;;;;;13.30;12.00;;;21.20;66.00;;;;;;6183744;28;89023;-64
2022/03/17 06:31:23;;;;;;;12.93;11.82;;;21.30;66.00;;;;;;6183626;28;87260;-65
2022/03/17 06:34:25;;;;;;;13.60;12.30;;;21.20;65.90;;;;;;6184266;28;87797;-65
2022/03/17 06:37:27;;;;;;;12.65;11.55;;;21.20;65.80;;;;;;6183024;28;89092;-64
2022/03/17 06:40:30;;;;;;;12.35;11.25;;;21.20;65.70;;;;;;6184314;28;90416;-65
2022/03/17 06:43:34;;;;;;;12.43;11.32;;;21.20;65.70;;;;;;6183439;28;89136;-65
2022/03/17 06:46:36;;;;;;;12.90;11.70;;;21.20;65.70;;;;;;6183608;28;89152;-65
2022/03/17 06:49:38;;;;;;;12.65;11.45;;;21.20;65.70;;;;;;6182949;28;87941;-65
2022/03/17 06:52:40;;;;;;;12.40;11.20;;;21.20;65.70;;;;;;6182809;28;89069;-65
2022/03/17 06:55:42;;;;;;;13.40;12.15;;;21.20;65.60;;;;;;6165876;28;89073;-65
2022/03/17 06:58:45;;;;;;;13.10;11.90;;;21.30;65.70;;;;;;6159055;28;89059;-65
2022/03/17 07:01:48;;;;;;;12.82;11.63;;;21.30;65.70;;;;;;6166414;28;88416;-64
2022/03/17 07:04:50;;;;;;;12.23;11.02;;;21.20;65.70;;;;;;6182764;28;89423;-65
2022/03/17 07:07:52;;;;;;;13.20;12.00;;;21.20;65.60;;;;;;6182927;28;89171;-65
2022/03/17 07:10:54;;;;;;;12.45;11.35;;;21.20;65.70;;;;;;6181570;28;90033;-64
2022/03/17 07:13:57;;;;;;;12.48;11.38;;;21.20;65.70;;;;;;6182686;28;88965;-64
2022/03/17 07:16:59;;;;;;;12.65;11.55;;;21.20;65.70;;;;;;6182724;28;88972;-64
2022/03/17 07:20:05;;;;;;;12.80;11.60;;;21.20;65.60;;;;;;6181938;28;89059;-65
2022/03/17 07:23:07;;;;;;;11.95;10.85;;;21.20;65.60;;;;;;6181931;28;89330;-65
2022/03/17 07:26:09;;;;;;;12.52;11.43;;;21.20;65.60;;;;;;6182436;28;89116;-65
2022/03/17 07:29:12;;;;;;;11.55;10.48;;;21.20;65.60;;;;;;6182290;28;89353;-64
2022/03/17 07:32:15;;;;;;;11.98;10.88;;;21.20;65.60;;;;;;6183902;28;88374;-65
2022/03/17 07:35:17;;;;;;;12.10;11.00;;;21.20;65.60;;;;;;6182612;28;89210;-65
2022/03/17 07:38:19;;;;;;;11.82;10.73;;;21.20;65.60;;;;;;6182228;28;89121;-64
2022/03/17 07:41:21;;;;;;;11.55;10.45;;;21.20;65.60;;;;;;6182020;28;89979;-65
2022/03/17 07:44:28;;;;;;;11.57;10.57;;;21.20;65.60;;;;;;6182074;28;89040;-64
2022/03/17 07:47:32;;;;;;;11.30;10.25;;;21.20;65.60;;;;;;6183134;28;88958;-65
2022/03/17 07:50:34;;;;;;;11.38;10.35;;;21.20;65.50;;;;;;6181170;28;89284;-65
2022/03/17 07:53:37;;;;;;;11.93;10.90;;;21.20;65.60;;;;;;6181417;28;89169;-64
2022/03/17 07:56:39;;;;;;;11.60;10.60;;;21.20;65.50;;;;;;6157717;28;87989;-65
2022/03/17 07:59:43;;;;;;;11.27;10.27;;;21.20;65.50;;;;;;6155557;28;88496;-65
2022/03/17 08:02:46;;;;;;;12.00;10.88;;;21.30;65.60;;;;;;6172222;28;88298;-65
2022/03/17 08:05:48;;;;;;;11.43;10.43;;;21.20;65.50;;;;;;6181331;28;87891;-65
2022/03/17 08:08:51;;;;;;;11.35;10.35;;;21.20;65.60;;;;;;6182933;28;89119;-65
2022/03/17 08:11:53;;;;;;;10.77;9.88;;;21.20;65.50;;;;;;6181958;28;90367;-65
2022/03/17 08:14:56;;;;;;;11.02;10.07;;;21.20;65.50;;;;;;6182839;28;89108;-64
2022/03/17 08:17:58;;;;;;;11.18;10.18;;;21.20;65.60;;;;;;6182076;28;87960;-65
2022/03/17 08:21:00;;;;;;;11.00;10.10;;;21.20;65.60;;;;;;6181726;28;89106;-65
2022/03/17 08:24:02;;;;;;;10.90;9.90;;;21.20;65.60;;;;;;6182632;28;88898;-65
2022/03/17 08:27:05;;;;;;;11.32;10.32;;;21.20;65.60;;;;;;6182326;28;89293;-65
2022/03/17 08:30:09;;;;;;;11.88;10.82;;;21.20;65.60;;;;;;6181196;28;89096;-65
2022/03/17 08:33:11;;;;;;;11.10;10.20;;;21.20;65.60;;;;;;6183213;28;88326;-65
2022/03/17 08:36:13;;;;;;;10.48;9.57;;;21.20;65.60;;;;;;6181582;28;89126;-64
2022/03/17 08:39:15;;;;;;;10.70;9.70;;;21.20;65.70;;;;;;6181192;28;89119;-65
2022/03/17 08:42:17;;;;;;;10.85;9.95;;;21.20;65.70;;;;;;6182399;28;90004;-65
2022/03/17 08:52:04;;;;;;;10.88;9.98;;;21.20;65.60;;;;;;6158280;28;87249;-65
2022/03/17 08:55:06;;;;;;;10.70;9.80;;;21.20;65.60;;;;;;6158334;28;88982;-65
2022/03/17 08:58:09;;;;;;;10.75;9.85;;;21.20;65.60;;;;;;6157807;28;89105;-65
2022/03/17 09:01:12;;;;;;;10.35;9.45;;;21.30;65.70;;;;;;6158525;28;89034;-65
2022/03/17 09:04:14;;;;;;;9.80;9.00;;;21.30;65.80;;;;;;6182653;28;88683;-65
2022/03/17 09:07:16;;;;;;;10.52;9.65;;;21.30;65.70;;;;;;6181866;28;89101;-65
2022/03/17 09:10:20;;;;;;;10.40;9.40;;;21.20;65.60;;;;;;6183502;28;89037;-65
2022/03/17 09:13:23;;;;;;;10.48;9.57;;;21.30;65.80;;;;;;6185885;28;89958;-65
2022/03/17 09:16:27;;;;;;;10.25;9.35;;;21.30;65.80;;;;;;6188139;28;89102;-65
2022/03/17 09:19:29;;;;;;;10.15;9.25;;;21.30;65.80;;;;;;6185354;28;89243;-65
2022/03/17 09:22:31;;;;;;;10.93;9.93;;;21.30;65.80;;;;;;6185667;28;89172;-65
2022/03/17 09:25:34;;;;;;;10.02;9.13;;;21.20;65.80;;;;;;6187699;28;89453;-65
2022/03/17 09:28:36;;;;;;;10.15;9.25;;;21.30;65.90;;;;;;6185866;28;87999;-65
2022/03/17 09:31:39;;;;;;;9.50;8.70;;;21.30;66.00;;;;;;6185085;28;89114;-65
2022/03/17 09:34:41;;;;;;;9.93;9.02;;;21.30;65.90;;;;;;6186718;28;88250;-65
2022/03/17 09:37:43;;;;;;;9.68;8.82;;;21.30;66.00;;;;;;6184918;28;89404;-65
2022/03/17 09:40:46;;;;;;;9.52;8.70;;;21.30;66.00;;;;;;6187771;28;89127;-65
2022/03/17 09:43:48;;;;;;;10.18;9.27;;;21.30;66.00;;;;;;6186048;28;89920;-65
2022/03/17 09:46:55;;;;;;;9.93;9.07;;;21.30;66.00;;;;;;6185359;28;89168;-65
2022/03/17 09:49:58;;;;;;;9.93;9.02;;;21.20;66.00;;;;;;6186845;28;89074;-65
2022/03/17 09:53:00;;;;;;;9.75;8.95;;;21.30;66.00;;;;;;6184746;28;88796;-65
2022/03/17 09:56:03;;;;;;;9.73;8.93;;;21.30;66.00;;;;;;6162421;28;89100;-65
2022/03/17 09:59:06;;;;;;;9.15;8.35;;;21.20;66.00;;;;;;6161479;28;89152;-65
2022/03/17 10:02:13;;;;;;;9.85;8.98;;;21.30;66.00;;;;;;6169525;28;88050;-65
2022/03/17 10:05:15;;;;;;;9.18;8.48;;;21.30;66.10;;;;;;6185440;28;88301;-65
2022/03/17 10:08:20;;;;;;;9.48;8.57;;;21.30;66.00;;;;;;6183825;28;89062;-65
2022/03/17 10:11:26;;;;;;;8.90;8.10;;;21.30;66.00;;;;;;6185449;28;88368;-65
2022/03/17 10:14:40;;;;;;;9.07;8.30;;;21.30;66.00;;;;;;6184790;28;90015;-65
2022/03/17 10:17:43;;;;;;;9.38;8.57;;;21.30;66.00;;;;;;6184122;28;89848;-65
2022/03/17 10:20:45;;;;;;;9.35;8.55;;;21.30;66.00;;;;;;6184727;28;89087;-65
2022/03/17 10:23:49;;;;;;;8.90;8.13;;;21.30;66.00;;;;;;6186304;28;89153;-65
2022/03/17 10:26:52;;;;;;;8.93;8.13;;;21.30;66.10;;;;;;6185037;28;89589;-65
2022/03/17 10:30:03;;;;;;;9.50;8.70;;;21.30;66.10;;;;;;6185033;28;88981;-65
2022/03/17 10:33:09;;;;;;;8.85;8.07;;;21.30;66.10;;;;;;6184485;28;88043;-65
2022/03/17 10:36:16;;;;;;;8.95;8.18;;;21.30;66.10;;;;;;6185962;28;88313;-65
2022/03/17 10:39:19;;;;;;;8.30;7.60;;;21.30;66.10;;;;;;6185665;28;88904;-65
2022/03/17 10:42:22;;;;;;;8.70;8.00;;;21.30;66.10;;;;;;6184856;28;88007;-65
2022/03/17 10:45:29;;;;;;;8.95;8.25;;;21.30;66.10;;;;;;6183684;28;90121;-64
2022/03/17 10:48:33;;;;;;;8.68;7.93;;;21.30;66.10;;;;;;6183910;28;88989;-65
2022/03/17 10:51:37;;;;;;;8.98;8.18;;;21.30;66.10;;;;;;6185153;28;90121;-65
2022/03/17 10:54:39;;;;;;;8.65;7.95;;;21.30;66.10;;;;;;6173803;28;88954;-65
2022/03/17 10:57:41;;;;;;;8.57;7.88;;;21.30;66.10;;;;;;6160964;28;89097;-65
2022/03/17 11:00:47;;;;;;;8.98;8.18;;;21.20;66.10;;;;;;6161206;28;88975;-65
2022/03/17 11:03:51;;;;;;;8.32;7.63;;;21.30;66.20;;;;;;6182190;28;89150;-65
2022/03/17 11:06:54;;;;;;;8.30;7.60;;;21.30;66.30;;;;;;6184802;28;88611;-65
2022/03/17 11:09:57;;;;;;;8.57;7.88;;;21.30;66.20;;;;;;6183414;28;89256;-65
2022/03/17 11:12:59;;;;;;;8.55;7.85;;;21.30;66.20;;;;;;6184919;28;88521;-65
2022/03/17 11:16:06;;;;;;;8.50;7.78;;;21.30;66.50;;;;;;6184385;28;90323;-64
2022/03/17 11:19:12;;;;;;;8.70;7.90;;;21.30;66.10;;;;;;6184511;28;89115;-65
2022/03/17 11:22:16;;;;;;;7.97;7.28;;;21.30;66.10;;;;;;6184282;28;89085;-65
2022/03/17 11:25:20;;;;;;;8.23;7.53;;;21.30;66.10;;;;;;6185198;28;89070;-65
2022/03/17 11:28:32;;;;;;;8.32;7.63;;;21.30;66.10;;;;;;6182919;28;87984;-64
2022/03/17 11:32:01;;;;;;;7.88;7.18;;;21.30;66.10;;;;;;6183094;28;89039;-65
2022/03/17 11:35:10;;;;;;;8.25;7.55;;;21.30;66.10;;;;;;6170164;28;87650;-65
2022/03/17 11:38:16;;;;;;;8.10;7.40;;;21.30;66.10;;;;;;6184026;28;88366;-65
2022/03/17 11:41:22;;;;;;;8.13;7.43;;;21.30;66.10;;;;;;6183644;28;89373;-65
2022/03/17 11:44:34;;;;;;;8.02;7.32;;;21.30;66.20;;;;;;6183658;28;88411;-65
2022/03/17 11:47:37;;;;;;;7.63;7.03;;;21.30;66.20;;;;;;6182817;28;90011;-64
2022/03/17 11:50:43;;;;;;;8.10;7.40;;;21.30;66.30;;;;;;6182452;28;89126;-64
2022/03/17 11:53:47;;;;;;;8.00;7.30;;;21.30;66.20;;;;;;6179192;28;89483;-65
2022/03/17 11:56:53;;;;;;;7.88;7.28;;;21.30;66.20;;;;;;6158659;28;89068;-65
2022/03/17 11:59:56;;;;;;;7.57;6.95;;;21.30;66.30;;;;;;6157973;28;89016;-64
2022/03/17 12:03:06;;;;;;;7.53;6.93;;;21.30;66.20;;;;;;6174832;28;89227;-64
2022/03/17 12:06:14;;;;;;;7.53;6.93;;;21.30;66.30;;;;;;6181918;28;89260;-65
2022/03/17 12:09:30;;;;;;;7.70;7.00;;;21.30;66.30;;;;;;6183820;28;88444;-64
2022/03/17 12:12:34;;;;;;;7.57;6.97;;;21.30;66.30;;;;;;6181721;28;89026;-64
2022/03/17 12:15:39;;;;;;;7.45;6.85;;;21.30;66.30;;;;;;6183435;28;89055;-64
2022/03/17 12:19:02;;;;;;;7.45;6.85;;;21.30;66.30;;;;;;6181652;28;90596;-64
2022/03/17 12:22:08;;;;;;;7.55;6.85;;;21.30;66.20;;;;;;6183594;28;89121;-64
2022/03/17 12:25:16;;;;;;;7.45;6.85;;;21.30;66.20;;;;;;6183916;28;87120;-65
2022/03/17 12:28:18;;;;;;;7.70;7.10;;;21.30;66.10;;;;;;6182925;28;89217;-64
2022/03/17 12:31:20;;;;;;;7.40;6.80;;;21.30;66.20;;;;;;6182821;28;89274;-64
2022/03/17 12:34:22;;;;;;;6.90;6.30;;;21.30;66.20;;;;;;6181923;28;89604;-64
2022/03/17 12:37:28;;;;;;;7.53;6.82;;;21.30;66.20;;;;;;6181951;28;89081;-64
2022/03/17 12:40:34;;;;;;;7.30;6.70;;;21.30;66.20;;;;;;6182026;28;88347;-64
2022/03/17 12:43:37;;;;;;;7.70;7.03;;;21.30;66.20;;;;;;6181173;28;89102;-64
2022/03/17 12:46:40;;;;;;;6.97;6.38;;;21.30;66.30;;;;;;6182853;28;89079;-64
2022/03/17 12:49:42;;;;;;;6.82;6.28;;;21.30;66.20;;;;;;6180881;28;90314;-64
2022/03/17 12:52:47;;;;;;;7.32;6.72;;;21.30;66.20;;;;;;6184004;28;89417;-64
2022/03/17 12:55:52;;;;;;;7.18;6.57;;;21.30;66.20;;;;;;6160803;28;88893;-64
2022/03/17 12:58:54;;;;;;;7.18;6.57;;;21.30;66.30;;;;;;6157107;28;89342;-65
2022/03/17 13:01:56;;;;;;;7.10;6.50;;;21.30;66.30;;;;;;6165340;28;89403;-64
2022/03/17 13:06:52;;;;;;;6.97;6.38;;;21.30;66.30;;;;;;6183706;28;87950;-64
2022/03/17 13:08:25;;;;;;;7.15;6.55;;;21.30;66.30;;;;;;6181975;28;88970;-64
2022/03/17 13:15:04;;;;;;;6.95;6.35;;;21.30;66.30;;;;;;6130089;28;88180;-64
2022/03/17 13:18:10;;;;;;;7.00;6.40;;;21.30;66.30;;;;;;6131382;28;89061;-64
2022/03/17 13:21:13;;;;;;;6.80;6.22;;;21.30;66.30;;;;;;6179808;28;90071;-65
2022/03/17 13:24:20;;;;;;;6.65;6.05;;;21.30;66.30;;;;;;6182612;28;87972;-65
2022/03/17 13:27:26;;;;;;;6.95;6.35;;;21.30;66.30;;;;;;6183938;28;89082;-64
2022/03/17 13:30:30;;;;;;;6.63;6.13;;;21.30;66.30;;;;;;6182650;28;89082;-64
2022/03/17 13:33:33;;;;;;;6.30;5.80;;;21.30;66.30;;;;;;6180825;28;89230;-65
2022/03/17 13:36:55;;;;;;;6.80;6.30;;;21.30;66.20;;;;;;6182227;28;89387;-65
2022/03/17 13:40:03;;;;;;;6.68;6.13;;;21.30;66.20;;;;;;6157868;28;89059;-64
2022/03/17 13:43:07;;;;;;;6.93;6.32;;;21.30;66.30;;;;;;6156828;28;88248;-64
2022/03/17 13:46:18;;;;;;;6.43;5.93;;;21.30;66.20;;;;;;6158366;28;88989;-65
2022/03/17 13:49:26;;;;;;;6.72;6.22;;;21.30;66.30;;;;;;6164246;28;88439;-64
2022/03/17 13:52:28;;;;;;;6.85;6.25;;;21.30;66.20;;;;;;6181574;28;90145;-64
2022/03/17 13:55:42;;;;;;;6.53;6.03;;;21.30;66.30;;;;;;6163583;28;89060;-64
2022/03/17 13:58:46;;;;;;;6.45;5.95;;;21.30;66.30;;;;;;6160431;28;89051;-64
2022/03/17 14:02:11;;;;;;;6.47;5.88;;;21.20;66.20;;;;;;6167298;28;89480;-64
2022/03/17 14:05:15;;;;;;;6.30;5.80;;;21.30;66.30;;;;;;6184792;28;89471;-64
2022/03/17 14:08:17;;;;;;;6.40;5.80;;;21.30;66.30;;;;;;6186091;28;88953;-65
2022/03/17 14:11:24;;;;;;;6.55;6.05;;;21.20;66.30;;;;;;6186925;28;88986;-65
2022/03/17 14:14:26;;;;;;;6.38;5.80;;;21.30;66.30;;;;;;6187233;28;88546;-64
2022/03/17 14:17:28;;;;;;;6.22;5.72;;;21.30;66.30;;;;;;6181823;28;89632;-64
2022/03/17 14:20:30;;;;;;;5.93;5.43;;;21.20;66.30;;;;;;6183941;28;89501;-65
2022/03/17 14:26:53;;;;;;;6.45;5.85;;;21.30;66.50;;;;;;6184646;28;87151;-65
2022/03/17 14:29:55;;;;;;;7.20;5.90;;;21.30;67.00;;;;;;6181337;28;89139;-64
2022/03/17 14:32:57;;;;;;;6.80;5.97;;;21.30;67.10;;;;;;6169056;28;89200;-65
2022/03/17 14:35:59;;;;;;;6.82;6.18;;;21.30;67.20;;;;;;6180407;28;89253;-64
2022/03/17 14:39:06;;;;;;;6.07;5.57;;;21.30;67.00;;;;;;6181756;28;89151;-65
2022/03/17 14:42:12;;;;;;;6.40;5.80;;;21.30;67.00;;;;;;6180639;28;89091;-65
2022/03/17 14:45:14;;;;;;;6.72;6.15;;;21.30;66.80;;;;;;6180429;28;88670;-64
2022/03/17 14:48:16;;;;;;;6.18;5.50;;;21.30;66.90;;;;;;6178404;28;89117;-65
2022/03/17 14:51:18;;;;;;;6.15;5.63;;;21.30;66.80;;;;;;6177632;28;89144;-65
2022/03/17 14:54:23;;;;;;;6.05;5.55;;;21.30;66.90;;;;;;6174142;28;90097;-65
2022/03/17 14:57:27;;;;;;;7.53;5.65;;;21.30;67.00;;;;;;6177014;28;89154;-65
2022/03/17 15:00:29;;;;;;;6.22;5.72;;;21.30;67.00;;;;;;6177525;28;90702;-65
2022/03/17 15:03:31;;;;;;;6.15;5.65;;;21.20;66.80;;;;;;6177805;28;89135;-65
2022/03/17 15:06:33;;;;;;;6.28;5.68;;;21.30;66.90;;;;;;6177267;28;89365;-65
2022/03/17 15:09:35;;;;;;;6.13;5.63;;;21.20;66.90;;;;;;6177314;28;89072;-65
2022/03/17 15:12:39;;;;;;;6.10;5.53;;;21.30;67.00;;;;;;6176392;28;89003;-65
2022/03/17 15:15:41;;;;;;;6.28;5.72;;;21.20;66.90;;;;;;6178213;28;87122;-65
2022/03/17 15:18:43;;;;;;;6.15;5.53;;;21.20;66.90;;;;;;6178298;28;89058;-64
2022/03/17 15:21:45;;;;;;;6.43;5.93;;;21.30;67.00;;;;;;6177139;28;89140;-64
2022/03/17 15:24:47;;;;;;;6.38;5.78;;;21.30;67.00;;;;;;6176836;28;90064;-65
2022/03/17 15:31:13;;;;;;;5.80;5.40;;;21.20;67.00;;;;;;6180678;28;87247;-65
2022/03/17 15:34:16;;;;;;;6.10;5.60;;;21.20;67.10;;;;;;6179437;28;89099;-65
2022/03/17 15:37:18;;;;;;;6.90;5.85;;;21.20;67.10;;;;;;6179649;28;89082;-65
2022/03/17 15:40:21;;;;;;;5.88;5.35;;;21.20;67.00;;;;;;6180102;28;89022;-65
2022/03/17 15:43:24;;;;;;;6.18;5.68;;;21.20;67.00;;;;;;6177690;28;88984;-65
2022/03/17 15:46:26;;;;;;;6.57;5.97;;;21.20;67.10;;;;;;6180137;28;88362;-65
2022/03/17 15:49:28;;;;;;;5.78;5.28;;;21.30;67.30;;;;;;6180008;28;89090;-65
2022/03/17 15:52:30;;;;;;;6.10;5.53;;;21.20;67.30;;;;;;6178825;28;86913;-66
2022/03/17 15:55:33;;;;;;;6.72;5.75;;;21.20;67.30;;;;;;6155942;28;89040;-65
2022/03/17 15:58:37;;;;;;;6.15;5.50;;;21.20;67.20;;;;;;6156846;28;89424;-67
2022/03/17 16:01:39;;;;;;;6.70;5.80;;;21.20;67.30;;;;;;6173224;28;89112;-64
2022/03/17 16:04:41;;;;;;;7.43;5.63;;;21.20;67.60;;;;;;6183973;28;89314;-65
2022/03/17 16:07:45;;;;;;;6.47;5.85;;;21.20;67.50;;;;;;6182631;28;89206;-64
2022/03/17 16:14:29;;;;;;;5.78;5.28;;;21.10;67.30;;;;;;6184478;28;87345;-65